Time,TemperatureF,DewpointF,PressureIn,WindDirection,WindDirectionDegrees,WindSpeedMPH,WindSpeedGustMPH,Humidity,HourlyPrecipIn,Conditions,Clouds,dailyrainin,SoftwareType,DateUTC
2013-03-18 00:00:00,27.6,14.7,30.30,North,32767,-999.0,0.0,58,0.00,,,0.00,Wunderground v.1.15,2013-03-18 04:00:00,
2013-03-18 00:10:00,27.2,14.4,30.31,North,32767,-999.0,0.0,58,0.00,,,0.00,Wunderground v.1.15,2013-03-18 04:10:00,
2013-03-18 00:15:00,27.2,14.4,30.31,North,32767,-999.0,0.0,58,0.00,,,0.00,Wunderground v.1.15,2013-03-18 04:15:00,
2013-03-18 00:20:00,27.1,14.3,30.31,North,32767,-999.0,0.0,58,0.00,,,0.00,Wunderground v.1.15,2013-03-18 04:20:00,
2013-03-18 00:30:00,27.1,14.3,30.31,North,32767,-999.0,0.0,58,0.00,,,0.00,Wunderground v.1.15,2013-03-18 04:30:00,
2013-03-18 00:35:00,26.9,14.1,30.32,North,32767,-999.0,0.0,58,0.00,,,0.00,Wunderground v.1.15,2013-03-18 04:35:00,
2013-03-18 00:40:00,26.9,14.1,30.32,North,32767,-999.0,0.0,58,0.00,,,0.00,Wunderground v.1.15,2013-03-18 04:40:00,
2013-03-18 00:45:00,26.7,13.9,30.32,North,32767,-999.0,0.0,58,0.00,,,0.00,Wunderground v.1.15,2013-03-18 04:45:00,
2013-03-18 00:50:00,26.6,13.8,30.31,North,32767,-999.0,0.0,58,0.00,,,0.00,Wunderground v.1.15,2013-03-18 04:50:00,
2013-03-18 01:00:00,26.3,13.9,30.31,North,32767,-999.0,0.0,59,0.00,,,0.00,Wunderground v.1.15,2013-03-18 05:00:00,
2013-03-18 01:10:00,25.9,14.3,30.30,North,32767,-999.0,0.0,61,0.00,,,0.00,Wunderground v.1.15,2013-03-18 05:10:00,
2013-03-18 01:20:00,26.0,14.0,30.30,North,32767,-999.0,0.0,60,0.00,,,0.00,Wunderground v.1.15,2013-03-18 05:20:00,
2013-03-18 01:25:00,26.1,14.1,30.31,North,32767,-999.0,0.0,60,0.00,,,0.00,Wunderground v.1.15,2013-03-18 05:25:00,
2013-03-18 01:30:00,25.8,13.8,30.30,North,32767,-999.0,0.0,60,0.00,,,0.00,Wunderground v.1.15,2013-03-18 05:30:00,
2013-03-18 01:40:00,25.7,13.7,30.31,North,32767,-999.0,0.0,60,0.00,,,0.00,Wunderground v.1.15,2013-03-18 05:40:00,
2013-03-18 01:45:00,25.6,14.0,30.30,North,32767,-999.0,0.0,61,0.00,,,0.00,Wunderground v.1.15,2013-03-18 05:45:00,
2013-03-18 01:50:00,25.4,14.2,30.30,North,32767,-999.0,0.0,62,0.00,,,0.00,Wunderground v.1.15,2013-03-18 05:50:00,
2013-03-18 01:55:00,25.3,14.1,30.31,North,32767,-999.0,0.0,62,0.00,,,0.00,Wunderground v.1.15,2013-03-18 05:55:00,
2013-03-18 02:00:00,25.4,13.8,30.31,North,32767,-999.0,0.0,61,0.00,,,0.00,Wunderground v.1.15,2013-03-18 06:00:00,
2013-03-18 02:10:00,25.4,13.8,30.32,North,32767,-999.0,0.0,61,0.00,,,0.00,Wunderground v.1.15,2013-03-18 06:10:00,
2013-03-18 02:20:00,25.3,13.7,30.32,North,32767,-999.0,0.0,61,0.00,,,0.00,Wunderground v.1.15,2013-03-18 06:20:00,
2013-03-18 02:25:00,25.0,14.2,30.32,North,32767,-999.0,0.0,63,0.00,,,0.00,Wunderground v.1.15,2013-03-18 06:25:00,
2013-03-18 02:30:00,24.9,14.1,30.32,North,32767,-999.0,0.0,63,0.00,,,0.00,Wunderground v.1.15,2013-03-18 06:30:00,
2013-03-18 02:35:00,24.7,13.9,30.32,North,32767,-999.0,0.0,63,0.00,,,0.00,Wunderground v.1.15,2013-03-18 06:35:00,
2013-03-18 02:45:00,24.7,13.9,30.33,North,32767,-999.0,0.0,63,0.00,,,0.00,Wunderground v.1.15,2013-03-18 06:45:00,
2013-03-18 02:55:00,24.5,13.7,30.33,North,32767,-999.0,0.0,63,0.00,,,0.00,Wunderground v.1.15,2013-03-18 06:55:00,
2013-03-18 03:00:00,24.3,13.5,30.34,North,32767,-999.0,0.0,63,0.00,,,0.00,Wunderground v.1.15,2013-03-18 07:00:00,
2013-03-18 03:10:00,24.4,12.9,30.34,North,32767,-999.0,0.0,61,0.00,,,0.00,Wunderground v.1.15,2013-03-18 07:10:00,
2013-03-18 03:15:00,24.2,13.0,30.35,North,32767,-999.0,0.0,62,0.00,,,0.00,Wunderground v.1.15,2013-03-18 07:15:00,
2013-03-18 03:20:00,24.2,12.7,30.34,North,32767,-999.0,0.0,61,0.00,,,0.00,Wunderground v.1.15,2013-03-18 07:20:00,
2013-03-18 03:25:00,24.0,12.9,30.35,North,32767,-999.0,0.0,62,0.00,,,0.00,Wunderground v.1.15,2013-03-18 07:25:00,
2013-03-18 03:30:00,24.0,12.9,30.35,North,32767,-999.0,0.0,62,0.00,,,0.00,Wunderground v.1.15,2013-03-18 07:30:00,
2013-03-18 03:40:00,23.6,12.8,30.35,North,32767,-999.0,0.0,63,0.00,,,0.00,Wunderground v.1.15,2013-03-18 07:40:00,
2013-03-18 03:50:00,23.4,12.6,30.35,North,32767,-999.0,0.0,63,0.00,,,0.00,Wunderground v.1.15,2013-03-18 07:50:00,
2013-03-18 03:55:00,23.3,13.3,30.35,North,32767,-999.0,0.0,65,0.00,,,0.00,Wunderground v.1.15,2013-03-18 07:55:00,
2013-03-18 04:00:00,23.3,12.6,30.35,North,32767,-999.0,0.0,63,0.00,,,0.00,Wunderground v.1.15,2013-03-18 08:00:00,
2013-03-18 04:10:00,23.0,12.6,30.35,North,32767,-999.0,0.0,64,0.00,,,0.00,Wunderground v.1.15,2013-03-18 08:10:00,
2013-03-18 04:20:00,22.7,12.3,30.35,North,32767,-999.0,0.0,64,0.00,,,0.00,Wunderground v.1.15,2013-03-18 08:20:00,
2013-03-18 04:25:00,22.8,12.1,30.35,North,32767,-999.0,0.0,63,0.00,,,0.00,Wunderground v.1.15,2013-03-18 08:25:00,
2013-03-18 04:30:00,22.9,12.5,30.35,North,32767,-999.0,0.0,64,0.00,,,0.00,Wunderground v.1.15,2013-03-18 08:30:00,
2013-03-18 04:35:00,22.9,12.2,30.35,North,32767,-999.0,0.0,63,0.00,,,0.00,Wunderground v.1.15,2013-03-18 08:35:00,
2013-03-18 04:45:00,22.8,12.4,30.35,North,32767,-999.0,0.0,64,0.00,,,0.00,Wunderground v.1.15,2013-03-18 08:45:00,
2013-03-18 04:50:00,22.7,12.3,30.36,North,32767,-999.0,0.0,64,0.00,,,0.00,Wunderground v.1.15,2013-03-18 08:50:00,
2013-03-18 05:00:00,22.6,12.2,30.36,North,32767,-999.0,0.0,64,0.00,,,0.00,Wunderground v.1.15,2013-03-18 09:00:00,
2013-03-18 05:10:00,22.4,12.4,30.36,North,32767,-999.0,0.0,65,0.00,,,0.00,Wunderground v.1.15,2013-03-18 09:10:00,
2013-03-18 05:15:00,22.4,12.4,30.36,North,32767,-999.0,0.0,65,0.00,,,0.00,Wunderground v.1.15,2013-03-18 09:15:00,
2013-03-18 05:25:00,22.3,12.3,30.36,North,32767,-999.0,0.0,65,0.00,,,0.00,Wunderground v.1.15,2013-03-18 09:25:00,
2013-03-18 05:30:00,22.3,12.7,30.36,North,32767,-999.0,0.0,66,0.00,,,0.00,Wunderground v.1.15,2013-03-18 09:30:00,
2013-03-18 05:35:00,22.3,12.7,30.36,North,32767,-999.0,0.0,66,0.00,,,0.00,Wunderground v.1.15,2013-03-18 09:35:00,
2013-03-18 05:40:00,22.1,12.5,30.36,North,32767,-999.0,0.0,66,0.00,,,0.00,Wunderground v.1.15,2013-03-18 09:40:00,
2013-03-18 05:50:00,22.1,12.1,30.36,North,32767,-999.0,0.0,65,0.00,,,0.00,Wunderground v.1.15,2013-03-18 09:50:00,
2013-03-18 06:00:00,22.0,11.7,30.37,North,32767,-999.0,0.0,64,0.00,,,0.00,Wunderground v.1.15,2013-03-18 10:00:00,
2013-03-18 06:10:00,22.3,11.6,30.37,North,32767,-999.0,0.0,63,0.00,,,0.00,Wunderground v.1.15,2013-03-18 10:10:00,
2013-03-18 06:15:00,22.4,11.0,30.37,North,32767,-999.0,0.0,61,0.00,,,0.00,Wunderground v.1.15,2013-03-18 10:15:00,
2013-03-18 06:25:00,22.4,11.0,30.37,North,32767,-999.0,0.0,61,0.00,,,0.00,Wunderground v.1.15,2013-03-18 10:25:00,
2013-03-18 06:30:00,22.4,11.0,30.37,North,32767,-999.0,0.0,61,0.00,,,0.00,Wunderground v.1.15,2013-03-18 10:30:00,
2013-03-18 06:40:00,22.5,11.1,30.38,North,32767,-999.0,0.0,61,0.00,,,0.00,Wunderground v.1.15,2013-03-18 10:40:00,
2013-03-18 06:50:00,22.5,10.3,30.37,North,32767,-999.0,0.0,59,0.00,,,0.00,Wunderground v.1.15,2013-03-18 10:50:00,
2013-03-18 06:55:00,22.5,11.4,30.37,North,32767,-999.0,0.0,62,0.00,,,0.00,Wunderground v.1.15,2013-03-18 10:55:00,
2013-03-18 07:05:00,22.5,11.8,30.37,North,32767,-999.0,0.0,63,0.00,,,0.00,Wunderground v.1.15,2013-03-18 11:05:00,
2013-03-18 07:10:00,22.5,11.4,30.38,North,32767,-999.0,0.0,62,0.00,,,0.00,Wunderground v.1.15,2013-03-18 11:10:00,
2013-03-18 07:20:00,22.5,10.7,30.38,North,32767,-999.0,0.0,60,0.00,,,0.00,Wunderground v.1.15,2013-03-18 11:20:00,
2013-03-18 07:25:00,22.6,10.4,30.38,North,32767,-999.0,0.0,59,0.00,,,0.00,Wunderground v.1.15,2013-03-18 11:25:00,
2013-03-18 07:35:00,22.9,10.3,30.37,North,32767,-999.0,0.0,58,0.00,,,0.00,Wunderground v.1.15,2013-03-18 11:35:00,
2013-03-18 07:45:00,23.3,9.9,30.37,North,32767,-999.0,0.0,56,0.00,,,0.00,Wunderground v.1.15,2013-03-18 11:45:00,
2013-03-18 07:50:00,23.4,10.4,30.37,North,32767,-999.0,0.0,57,0.00,,,0.00,Wunderground v.1.15,2013-03-18 11:50:00,
2013-03-18 08:00:00,23.6,9.8,30.37,North,32767,-999.0,0.0,55,0.00,,,0.00,Wunderground v.1.15,2013-03-18 12:00:00,
2013-03-18 08:10:00,23.9,9.6,30.37,North,32767,-999.0,0.0,54,0.00,,,0.00,Wunderground v.1.15,2013-03-18 12:10:00,
2013-03-18 08:20:00,24.1,9.8,30.37,North,32767,-999.0,0.0,54,0.00,,,0.00,Wunderground v.1.15,2013-03-18 12:20:00,
2013-03-18 08:30:00,24.3,10.4,30.37,North,32767,-999.0,0.0,55,0.00,,,0.00,Wunderground v.1.15,2013-03-18 12:30:00,
2013-03-18 08:35:00,24.3,10.4,30.36,North,32767,-999.0,0.0,55,0.00,,,0.00,Wunderground v.1.15,2013-03-18 12:35:00,
2013-03-18 08:40:00,24.3,10.4,30.37,North,32767,-999.0,0.0,55,0.00,,,0.00,Wunderground v.1.15,2013-03-18 12:40:00,
2013-03-18 08:45:00,24.4,11.3,30.37,North,32767,-999.0,0.0,57,0.00,,,0.00,Wunderground v.1.15,2013-03-18 12:45:00,
2013-03-18 08:50:00,24.6,10.7,30.38,North,32767,-999.0,0.0,55,0.00,,,0.00,Wunderground v.1.15,2013-03-18 12:50:00,
2013-03-18 09:00:00,24.9,11.0,30.37,North,32767,-999.0,0.0,55,0.00,,,0.00,Wunderground v.1.15,2013-03-18 13:00:00,
2013-03-18 09:10:00,25.1,11.2,30.37,North,32767,-999.0,0.0,55,0.00,,,0.00,Wunderground v.1.15,2013-03-18 13:10:00,
2013-03-18 09:20:00,25.4,12.3,30.38,North,32767,-999.0,0.0,57,0.00,,,0.00,Wunderground v.1.15,2013-03-18 13:20:00,
2013-03-18 09:25:00,25.6,12.1,30.38,North,32767,-999.0,0.0,56,0.00,,,0.00,Wunderground v.1.15,2013-03-18 13:25:00,
2013-03-18 09:35:00,25.7,11.7,30.37,North,32767,-999.0,0.0,55,0.00,,,0.00,Wunderground v.1.15,2013-03-18 13:35:00,
2013-03-18 09:40:00,25.9,12.7,30.37,North,32767,-999.0,0.0,57,0.00,,,0.00,Wunderground v.1.15,2013-03-18 13:40:00,
2013-03-18 09:45:00,26.0,12.8,30.37,North,32767,-999.0,0.0,57,0.00,,,0.00,Wunderground v.1.15,2013-03-18 13:45:00,
2013-03-18 09:50:00,26.1,13.7,30.37,North,32767,-999.0,0.0,59,0.00,,,0.00,Wunderground v.1.15,2013-03-18 13:50:00,
2013-03-18 10:00:00,26.1,13.7,30.37,North,32767,-999.0,0.0,59,0.00,,,0.00,Wunderground v.1.15,2013-03-18 14:00:00,
2013-03-18 10:10:00,26.8,14.8,30.37,SE,137,0.0,0.0,60,0.00,,,0.00,Wunderground v.1.15,2013-03-18 14:10:00,
2013-03-18 10:20:00,27.0,15.3,30.36,South,177,0.0,0.0,61,0.00,,,0.00,Wunderground v.1.15,2013-03-18 14:20:00,
2013-03-18 10:25:00,27.2,14.4,30.36,South,180,0.0,0.0,58,0.00,,,0.00,Wunderground v.1.15,2013-03-18 14:25:00,
2013-03-18 10:35:00,27.2,14.8,30.35,SSE,167,0.0,0.0,59,0.00,,,0.00,Wunderground v.1.15,2013-03-18 14:35:00,
2013-03-18 10:45:00,27.4,15.3,30.35,South,169,0.0,0.0,60,0.00,,,0.00,Wunderground v.1.15,2013-03-18 14:45:00,
2013-03-18 10:55:00,27.8,16.1,30.35,South,169,0.0,0.0,61,0.00,,,0.00,Wunderground v.1.15,2013-03-18 14:55:00,
2013-03-18 11:00:00,28.0,16.6,30.35,SW,217,0.0,0.0,62,0.00,,,0.00,Wunderground v.1.15,2013-03-18 15:00:00,
2013-03-18 11:10:00,28.3,16.9,30.34,South,169,0.0,0.0,62,0.00,,,0.00,Wunderground v.1.15,2013-03-18 15:10:00,
2013-03-18 11:15:00,28.6,17.2,30.35,South,171,0.0,0.0,62,0.00,,,0.00,Wunderground v.1.15,2013-03-18 15:15:00,
2013-03-18 11:20:00,28.9,18.2,30.35,SSW,196,0.0,0.0,64,0.00,,,0.00,Wunderground v.1.15,2013-03-18 15:20:00,
2013-03-18 11:30:00,29.2,18.2,30.34,SSW,198,0.0,0.0,63,0.00,,,0.00,Wunderground v.1.15,2013-03-18 15:30:00,
2013-03-18 11:40:00,29.4,18.3,30.34,South,176,0.0,0.0,63,0.00,,,0.00,Wunderground v.1.15,2013-03-18 15:40:00,
2013-03-18 11:45:00,29.5,18.4,30.33,SSW,200,0.0,0.0,63,0.00,,,0.00,Wunderground v.1.15,2013-03-18 15:45:00,
2013-03-18 11:55:00,29.6,18.5,30.33,SSW,198,0.0,0.0,63,0.00,,,0.00,Wunderground v.1.15,2013-03-18 15:55:00,
2013-03-18 12:00:00,29.7,19.0,30.33,SE,146,0.0,0.0,64,0.00,,,0.00,Wunderground v.1.15,2013-03-18 16:00:00,
2013-03-18 12:10:00,30.1,19.7,30.34,South,189,0.0,0.0,65,0.00,,,0.00,Wunderground v.1.15,2013-03-18 16:10:00,
2013-03-18 12:20:00,30.3,19.9,30.33,South,174,0.0,0.0,65,0.00,,,0.00,Wunderground v.1.15,2013-03-18 16:20:00,
2013-03-18 12:30:00,30.4,20.0,30.33,SSW,196,0.0,0.0,65,0.00,,,0.00,Wunderground v.1.15,2013-03-18 16:30:00,
2013-03-18 12:40:00,30.6,20.2,30.32,SE,140,0.0,0.0,65,0.00,,,0.00,Wunderground v.1.15,2013-03-18 16:40:00,
2013-03-18 12:45:00,30.5,20.1,30.31,South,174,0.0,0.0,65,0.00,,,0.00,Wunderground v.1.15,2013-03-18 16:45:00,
2013-03-18 12:55:00,30.6,20.2,30.30,South,187,0.0,0.0,65,0.00,,,0.00,Wunderground v.1.15,2013-03-18 16:55:00,
2013-03-18 13:00:00,30.6,20.6,30.30,SSE,160,0.0,0.0,66,0.00,,,0.00,Wunderground v.1.15,2013-03-18 17:00:00,
2013-03-18 13:10:00,30.9,20.9,30.30,SSW,198,0.0,0.0,66,0.00,,,0.00,Wunderground v.1.15,2013-03-18 17:10:00,
2013-03-18 13:15:00,31.0,21.0,30.29,SSE,156,0.0,0.0,66,0.00,,,0.00,Wunderground v.1.15,2013-03-18 17:15:00,
2013-03-18 13:25:00,31.2,21.2,30.28,SSW,206,0.0,0.0,66,0.00,,,0.00,Wunderground v.1.15,2013-03-18 17:25:00,
2013-03-18 13:30:00,31.4,22.1,30.27,South,175,0.0,0.0,68,0.00,,,0.00,Wunderground v.1.15,2013-03-18 17:30:00,
2013-03-18 13:40:00,31.6,22.6,30.28,SSW,208,0.0,0.0,69,0.00,,,0.00,Wunderground v.1.15,2013-03-18 17:40:00,
2013-03-18 13:45:00,31.7,23.0,30.27,South,178,0.0,0.0,70,0.00,,,0.00,Wunderground v.1.15,2013-03-18 17:45:00,
2013-03-18 13:55:00,31.1,23.1,30.27,South,190,0.0,0.0,72,0.00,,,0.00,Wunderground v.1.15,2013-03-18 17:55:00,
2013-03-18 14:00:00,31.1,23.5,30.26,South,175,0.0,0.0,73,0.00,,,0.00,Wunderground v.1.15,2013-03-18 18:00:00,
2013-03-18 14:10:00,31.0,23.4,30.26,SSE,163,0.0,0.0,73,0.00,,,0.00,Wunderground v.1.15,2013-03-18 18:10:00,
2013-03-18 14:20:00,31.0,23.7,30.25,SSE,168,0.0,0.0,74,0.00,,,0.00,Wunderground v.1.15,2013-03-18 18:20:00,
2013-03-18 14:30:00,30.9,23.9,30.25,SSW,192,0.0,0.0,75,0.00,,,0.00,Wunderground v.1.15,2013-03-18 18:30:00,
2013-03-18 14:40:00,30.8,24.1,30.24,South,169,0.0,0.0,76,0.00,,,0.00,Wunderground v.1.15,2013-03-18 18:40:00,
2013-03-18 14:50:00,30.7,24.0,30.24,South,178,0.0,0.0,76,0.00,,,0.00,Wunderground v.1.15,2013-03-18 18:50:00,
2013-03-18 14:55:00,30.6,23.6,30.23,South,190,0.0,0.0,75,0.00,,,0.00,Wunderground v.1.15,2013-03-18 18:55:00,
2013-03-18 15:00:00,30.5,23.5,30.23,South,189,0.0,0.0,75,0.00,,,0.00,Wunderground v.1.15,2013-03-18 19:00:00,
2013-03-18 15:10:00,30.5,23.8,30.23,South,179,0.0,0.0,76,0.00,,,0.00,Wunderground v.1.15,2013-03-18 19:10:00,
2013-03-18 15:20:00,30.6,23.9,30.23,South,181,0.0,0.0,76,0.00,,,0.00,Wunderground v.1.15,2013-03-18 19:20:00,
2013-03-18 15:25:00,30.5,23.5,30.24,SSW,197,0.0,0.0,75,0.00,,,0.00,Wunderground v.1.15,2013-03-18 19:25:00,
2013-03-18 15:35:00,30.5,23.5,30.24,North,32767,-999.0,0.0,75,0.00,,,0.00,Wunderground v.1.15,2013-03-18 19:35:00,
2013-03-18 15:40:00,30.5,23.8,30.23,North,32767,-999.0,0.0,76,0.00,,,0.00,Wunderground v.1.15,2013-03-18 19:40:00,
2013-03-18 15:45:00,30.5,23.8,30.22,North,32767,-999.0,0.0,76,0.00,,,0.00,Wunderground v.1.15,2013-03-18 19:45:00,
2013-03-18 15:50:00,30.5,24.1,30.22,North,32767,-999.0,0.0,77,0.00,,,0.00,Wunderground v.1.15,2013-03-18 19:50:00,
2013-03-18 16:00:00,30.1,25.0,30.21,North,32767,-999.0,0.0,81,0.00,,,0.00,Wunderground v.1.15,2013-03-18 20:00:00,
2013-03-18 16:05:00,29.8,25.3,30.20,North,32767,-999.0,0.0,83,0.00,,,0.00,Wunderground v.1.15,2013-03-18 20:05:00,
2013-03-18 16:15:00,29.3,25.1,30.20,North,32767,-999.0,0.0,84,0.00,,,0.00,Wunderground v.1.15,2013-03-18 20:15:00,
2013-03-18 16:25:00,29.1,25.4,30.19,North,32767,-999.0,0.0,86,0.00,,,0.00,Wunderground v.1.15,2013-03-18 20:25:00,
2013-03-18 16:35:00,28.5,25.1,30.18,North,32767,-999.0,0.0,87,0.00,,,0.00,Wunderground v.1.15,2013-03-18 20:35:00,
2013-03-18 16:40:00,28.2,24.8,30.19,North,32767,-999.0,0.0,87,0.00,,,0.00,Wunderground v.1.15,2013-03-18 20:40:00,
2013-03-18 16:50:00,27.9,24.8,30.20,North,32767,-999.0,0.0,88,0.00,,,0.00,Wunderground v.1.15,2013-03-18 20:50:00,
2013-03-18 16:55:00,27.8,24.7,30.19,North,32767,-999.0,0.0,88,0.00,,,0.00,Wunderground v.1.15,2013-03-18 20:55:00,
2013-03-18 17:00:00,27.8,25.0,30.17,North,32767,-999.0,0.0,89,0.00,,,0.00,Wunderground v.1.15,2013-03-18 21:00:00,
2013-03-18 17:10:00,27.6,24.8,30.17,North,32767,-999.0,0.0,89,0.00,,,0.00,Wunderground v.1.15,2013-03-18 21:10:00,
2013-03-18 17:20:00,27.2,24.1,30.16,North,32767,-999.0,0.0,88,0.00,,,0.00,Wunderground v.1.15,2013-03-18 21:20:00,
2013-03-18 17:25:00,27.1,24.3,30.16,North,32767,-999.0,0.0,89,0.00,,,0.00,Wunderground v.1.15,2013-03-18 21:25:00,
2013-03-18 17:35:00,26.9,24.1,30.13,North,32767,-999.0,0.0,89,0.00,,,0.00,Wunderground v.1.15,2013-03-18 21:35:00,
2013-03-18 17:40:00,26.8,24.3,30.12,North,32767,-999.0,0.0,90,0.00,,,0.00,Wunderground v.1.15,2013-03-18 21:40:00,
2013-03-18 17:50:00,26.6,24.3,30.13,North,32767,-999.0,0.0,91,0.00,,,0.00,Wunderground v.1.15,2013-03-18 21:50:00,
2013-03-18 18:00:00,26.5,24.5,30.12,North,32767,-999.0,0.0,92,0.00,,,0.00,Wunderground v.1.15,2013-03-18 22:00:00,
2013-03-18 18:10:00,26.3,24.3,30.13,North,32767,-999.0,0.0,92,0.00,,,0.00,Wunderground v.1.15,2013-03-18 22:10:00,
2013-03-18 18:15:00,26.3,24.6,30.13,North,32767,-999.0,0.0,93,0.00,,,0.00,Wunderground v.1.15,2013-03-18 22:15:00,
2013-03-18 18:20:00,26.4,24.7,30.14,North,32767,-999.0,0.0,93,0.00,,,0.00,Wunderground v.1.15,2013-03-18 22:20:00,
2013-03-18 18:30:00,26.4,24.7,30.13,North,32767,-999.0,0.0,93,0.00,,,0.00,Wunderground v.1.15,2013-03-18 22:30:00,
2013-03-18 18:40:00,26.4,24.7,30.14,North,32767,-999.0,0.0,93,0.00,,,0.00,Wunderground v.1.15,2013-03-18 22:40:00,
2013-03-18 18:45:00,26.4,24.7,30.14,North,32767,-999.0,0.0,93,0.00,,,0.00,Wunderground v.1.15,2013-03-18 22:45:00,
2013-03-18 18:55:00,26.3,24.8,30.13,North,32767,-999.0,0.0,94,0.00,,,0.00,Wunderground v.1.15,2013-03-18 22:55:00,
2013-03-18 19:00:00,26.3,24.8,30.13,North,32767,-999.0,0.0,94,0.00,,,0.00,Wunderground v.1.15,2013-03-18 23:00:00,
2013-03-18 19:10:00,26.2,24.7,30.12,North,32767,-999.0,0.0,94,0.00,,,0.00,Wunderground v.1.15,2013-03-18 23:10:00,
2013-03-18 19:15:00,26.1,24.6,30.12,North,32767,-999.0,0.0,94,0.00,,,0.00,Wunderground v.1.15,2013-03-18 23:15:00,
2013-03-18 19:25:00,26.2,24.7,30.12,North,32767,-999.0,0.0,94,0.00,,,0.00,Wunderground v.1.15,2013-03-18 23:25:00,
2013-03-18 19:30:00,26.2,24.7,30.11,North,32767,-999.0,0.0,94,0.00,,,0.00,Wunderground v.1.15,2013-03-18 23:30:00,
2013-03-18 19:40:00,26.2,24.7,30.11,North,32767,-999.0,0.0,94,0.00,,,0.00,Wunderground v.1.15,2013-03-18 23:40:00,
2013-03-18 19:45:00,26.3,24.8,30.11,North,32767,-999.0,0.0,94,0.00,,,0.00,Wunderground v.1.15,2013-03-18 23:45:00,
2013-03-18 19:55:00,26.3,24.8,30.11,North,32767,-999.0,0.0,94,0.00,,,0.00,Wunderground v.1.15,2013-03-18 23:55:00,
2013-03-18 20:00:00,26.4,24.9,30.11,North,32767,-999.0,0.0,94,0.00,,,0.00,Wunderground v.1.15,2013-03-19 00:00:00,
2013-03-18 20:10:00,26.5,25.0,30.10,North,32767,-999.0,0.0,94,0.00,,,0.00,Wunderground v.1.15,2013-03-19 00:10:00,
2013-03-18 20:15:00,26.6,25.1,30.10,North,32767,-999.0,0.0,94,0.00,,,0.00,Wunderground v.1.15,2013-03-19 00:15:00,
2013-03-18 20:25:00,26.7,25.2,30.09,North,32767,-999.0,0.0,94,0.00,,,0.00,Wunderground v.1.15,2013-03-19 00:25:00,
2013-03-18 20:30:00,26.7,25.5,30.09,North,32767,-999.0,0.0,95,0.00,,,0.00,Wunderground v.1.15,2013-03-19 00:30:00,
2013-03-18 20:40:00,26.8,25.6,30.09,North,32767,-999.0,0.0,95,0.00,,,0.00,Wunderground v.1.15,2013-03-19 00:40:00,
2013-03-18 20:45:00,26.9,25.7,30.09,North,32767,-999.0,0.0,95,0.00,,,0.00,Wunderground v.1.15,2013-03-19 00:45:00,
2013-03-18 20:55:00,27.0,25.8,30.08,North,32767,-999.0,0.0,95,0.00,,,0.00,Wunderground v.1.15,2013-03-19 00:55:00,
2013-03-18 21:00:00,27.0,25.8,30.09,North,32767,-999.0,0.0,95,0.00,,,0.00,Wunderground v.1.15,2013-03-19 01:00:00,
2013-03-18 21:10:00,27.1,25.9,30.08,North,32767,-999.0,0.0,95,0.00,,,0.00,Wunderground v.1.15,2013-03-19 01:10:00,
2013-03-18 21:15:00,27.2,26.0,30.08,North,32767,-999.0,0.0,95,0.00,,,0.00,Wunderground v.1.15,2013-03-19 01:15:00,
2013-03-18 21:20:00,27.2,26.0,30.08,North,32767,-999.0,0.0,95,0.00,,,0.00,Wunderground v.1.15,2013-03-19 01:20:00,
2013-03-18 21:25:00,27.3,26.1,30.07,North,32767,-999.0,0.0,95,0.00,,,0.00,Wunderground v.1.15,2013-03-19 01:25:00,
2013-03-18 21:30:00,27.3,26.1,30.06,North,32767,-999.0,0.0,95,0.00,,,0.00,Wunderground v.1.15,2013-03-19 01:30:00,
2013-03-18 21:40:00,27.4,26.2,30.06,North,32767,-999.0,0.0,95,0.00,,,0.00,Wunderground v.1.15,2013-03-19 01:40:00,
2013-03-18 21:45:00,27.4,26.2,30.06,North,32767,-999.0,0.0,95,0.00,,,0.00,Wunderground v.1.15,2013-03-19 01:45:00,
2013-03-18 21:50:00,27.4,26.2,30.06,North,32767,-999.0,0.0,95,0.00,,,0.00,Wunderground v.1.15,2013-03-19 01:50:00,
2013-03-18 22:00:00,27.6,26.4,30.06,North,32767,-999.0,0.0,95,0.00,,,0.00,Wunderground v.1.15,2013-03-19 02:00:00,
2013-03-18 22:10:00,27.7,26.5,30.06,North,32767,-999.0,0.0,95,0.00,,,0.00,Wunderground v.1.15,2013-03-19 02:10:00,
2013-03-18 22:20:00,28.0,26.8,30.06,North,32767,-999.0,0.0,95,0.00,,,0.00,Wunderground v.1.15,2013-03-19 02:20:00,
2013-03-18 22:25:00,28.1,26.9,30.05,North,32767,-999.0,0.0,95,0.00,,,0.00,Wunderground v.1.15,2013-03-19 02:25:00,
2013-03-18 22:35:00,28.5,27.3,30.05,North,32767,-999.0,0.0,95,0.00,,,0.00,Wunderground v.1.15,2013-03-19 02:35:00,
2013-03-18 22:40:00,28.7,27.4,30.04,North,32767,-999.0,0.0,95,0.00,,,0.00,Wunderground v.1.15,2013-03-19 02:40:00,
2013-03-18 22:50:00,29.0,27.7,30.03,North,32767,-999.0,0.0,95,0.00,,,0.00,Wunderground v.1.15,2013-03-19 02:50:00,
2013-03-18 22:55:00,29.1,27.8,30.03,North,32767,-999.0,0.0,95,0.00,,,0.00,Wunderground v.1.15,2013-03-19 02:55:00,
2013-03-18 23:00:00,29.4,28.1,30.03,North,32767,-999.0,0.0,95,0.00,,,0.00,Wunderground v.1.15,2013-03-19 03:00:00,
2013-03-18 23:05:00,29.5,28.2,30.03,North,32767,-999.0,0.0,95,0.00,,,0.00,Wunderground v.1.15,2013-03-19 03:05:00,
2013-03-18 23:10:00,29.6,28.3,30.02,North,32767,-999.0,0.0,95,0.00,,,0.00,Wunderground v.1.15,2013-03-19 03:10:00,
2013-03-18 23:15:00,29.8,28.8,30.01,North,32767,-999.0,0.0,96,0.00,,,0.00,Wunderground v.1.15,2013-03-19 03:15:00,
2013-03-18 23:25:00,29.8,28.5,30.00,North,32767,-999.0,0.0,95,0.00,,,0.00,Wunderground v.1.15,2013-03-19 03:25:00,
2013-03-18 23:30:00,29.9,28.6,30.00,North,32767,-999.0,0.0,95,0.00,,,0.00,Wunderground v.1.15,2013-03-19 03:30:00,
2013-03-18 23:40:00,30.0,28.7,29.99,North,32767,-999.0,0.0,95,0.00,,,0.00,Wunderground v.1.15,2013-03-19 03:40:00,
2013-03-18 23:50:00,30.2,29.2,29.98,North,32767,-999.0,0.0,96,0.00,,,0.00,Wunderground v.1.15,2013-03-19 03:50:00,